createdAt,value
2018-11-27T00:00:15.785Z,940.97
2018-11-27T00:01:15.780Z,940.94
2018-11-27T00:02:15.770Z,940.97
2018-11-27T00:03:15.751Z,940.96
2018-11-27T00:04:15.746Z,940.94
2018-11-27T00:05:15.733Z,940.96
2018-11-27T00:06:15.724Z,940.99
2018-11-27T00:07:15.712Z,941.01
2018-11-27T00:08:15.703Z,941.03
2018-11-27T00:09:15.692Z,940.98
2018-11-27T00:10:15.683Z,941.04
2018-11-27T00:11:15.671Z,941.02
2018-11-27T00:12:15.663Z,941.02
2018-11-27T00:13:15.654Z,941.04
2018-11-27T00:14:15.643Z,941.05
2018-11-27T00:15:15.630Z,941.03
2018-11-27T00:16:15.616Z,941.06
2018-11-27T00:17:15.607Z,941.04
2018-11-27T00:18:15.599Z,941.04
2018-11-27T00:19:15.589Z,941.07
2018-11-27T00:20:15.577Z,941.07
2018-11-27T00:21:15.567Z,941.06
2018-11-27T00:22:15.561Z,941.10
2018-11-27T00:23:15.546Z,941.09
2018-11-27T00:24:15.537Z,941.13
2018-11-27T00:25:15.526Z,941.10
2018-11-27T00:26:15.516Z,941.14
2018-11-27T00:27:15.496Z,941.13
2018-11-27T00:28:15.497Z,941.15
2018-11-27T00:29:15.534Z,941.15
2018-11-27T00:30:15.472Z,941.10
2018-11-27T00:31:15.468Z,941.13
2018-11-27T00:32:15.464Z,941.14
2018-11-27T00:33:15.448Z,941.16
2018-11-27T00:34:15.433Z,941.15
2018-11-27T00:35:15.430Z,941.17
2018-11-27T00:36:15.412Z,941.16
2018-11-27T00:37:15.405Z,941.16
2018-11-27T00:38:15.395Z,941.14
2018-11-27T00:39:15.381Z,941.20
2018-11-27T00:40:15.374Z,941.16
2018-11-27T00:41:15.363Z,941.22
2018-11-27T00:42:15.364Z,941.22
2018-11-27T00:43:15.342Z,941.25
2018-11-27T00:44:15.332Z,941.24
2018-11-27T00:45:15.324Z,941.23
2018-11-27T00:46:15.311Z,941.25
2018-11-27T00:47:15.302Z,941.30
2018-11-27T00:48:15.299Z,941.27
2018-11-27T00:49:15.281Z,941.33
2018-11-27T00:50:15.271Z,941.31
2018-11-27T00:51:15.260Z,941.32
2018-11-27T00:52:15.249Z,941.32
2018-11-27T00:53:15.240Z,941.34
2018-11-27T00:54:15.241Z,941.34
2018-11-27T00:55:15.220Z,941.38
2018-11-27T00:56:15.209Z,941.38
2018-11-27T00:57:15.202Z,941.36
2018-11-27T00:58:15.190Z,941.37
2018-11-27T00:59:15.173Z,941.38
2018-11-27T01:00:15.186Z,941.45
2018-11-27T01:01:15.161Z,941.45
2018-11-27T01:02:15.150Z,941.44
2018-11-27T01:03:15.142Z,941.45
2018-11-27T01:04:15.132Z,941.41
2018-11-27T01:05:15.119Z,941.43
2018-11-27T01:06:15.111Z,941.46
2018-11-27T01:07:15.118Z,941.47
2018-11-27T01:08:15.090Z,941.48
2018-11-27T01:09:15.080Z,941.48
2018-11-27T01:10:15.069Z,941.49
2018-11-27T01:11:15.066Z,941.49
2018-11-27T01:12:15.055Z,941.49
2018-11-27T01:13:15.033Z,941.51
2018-11-27T01:14:15.033Z,941.52
2018-11-27T01:15:15.022Z,941.52
2018-11-27T01:16:15.008Z,941.51
2018-11-27T01:17:15.005Z,941.55
2018-11-27T01:18:14.987Z,941.53
2018-11-27T01:19:14.975Z,941.57
2018-11-27T01:20:14.967Z,941.58
2018-11-27T01:21:14.955Z,941.65
2018-11-27T01:22:14.946Z,941.60
2018-11-27T01:23:14.935Z,941.68
2018-11-27T01:24:14.927Z,941.68
2018-11-27T01:25:14.915Z,941.70
2018-11-27T01:26:14.906Z,941.70
2018-11-27T01:27:14.892Z,941.71
2018-11-27T01:28:14.884Z,941.75
2018-11-27T01:29:14.877Z,941.72
2018-11-27T01:30:14.870Z,941.72
2018-11-27T01:31:14.854Z,941.74
2018-11-27T01:32:14.835Z,941.78
2018-11-27T01:33:14.841Z,941.77
2018-11-27T01:34:14.816Z,941.75
2018-11-27T01:35:14.813Z,941.75
2018-11-27T01:36:14.804Z,941.70
2018-11-27T01:37:14.793Z,941.69
2018-11-27T01:38:14.788Z,941.77
2018-11-27T01:39:14.774Z,941.73
2018-11-27T01:40:14.763Z,941.73
2018-11-27T01:41:14.748Z,941.76
2018-11-27T01:42:14.743Z,941.75
2018-11-27T01:43:14.732Z,941.78
2018-11-27T01:44:14.723Z,941.78
2018-11-27T01:45:14.717Z,941.78
2018-11-27T01:46:14.705Z,941.80
2018-11-27T01:47:14.691Z,941.79
2018-11-27T01:48:14.675Z,941.79
2018-11-27T01:49:14.674Z,941.80
2018-11-27T01:50:14.662Z,941.78
2018-11-27T01:51:14.657Z,941.77
2018-11-27T01:52:14.657Z,941.84
2018-11-27T01:53:14.633Z,941.85
2018-11-27T01:54:14.623Z,941.84
2018-11-27T01:55:14.617Z,941.87
2018-11-27T01:56:14.600Z,941.84
2018-11-27T01:57:14.592Z,941.83
2018-11-27T01:58:14.578Z,941.85
2018-11-27T01:59:14.568Z,941.83
2018-11-27T02:00:14.559Z,941.86
2018-11-27T02:01:14.551Z,941.84
2018-11-27T02:02:14.544Z,941.85
2018-11-27T02:03:14.535Z,941.91
2018-11-27T02:04:14.517Z,941.92
2018-11-27T02:05:14.506Z,941.89
2018-11-27T02:06:14.496Z,941.86
2018-11-27T02:07:14.487Z,941.87
2018-11-27T02:08:14.474Z,941.89
2018-11-27T02:09:14.464Z,941.92
2018-11-27T02:10:14.460Z,941.95
2018-11-27T02:11:14.443Z,941.91
2018-11-27T02:12:14.434Z,941.91
2018-11-27T02:13:14.423Z,941.93
2018-11-27T02:14:14.415Z,941.91
2018-11-27T02:15:14.398Z,941.96
2018-11-27T02:16:14.391Z,941.91
2018-11-27T02:17:14.382Z,941.94
2018-11-27T02:18:14.372Z,941.92
2018-11-27T02:19:14.380Z,941.92
2018-11-27T02:20:14.352Z,941.90
2018-11-27T02:21:14.340Z,941.89
2018-11-27T02:22:14.341Z,941.91
2018-11-27T02:23:14.316Z,941.92
2018-11-27T02:24:14.308Z,941.95
2018-11-27T02:25:14.297Z,941.91
2018-11-27T02:26:14.290Z,941.97
2018-11-27T02:27:14.271Z,941.95
2018-11-27T02:28:14.256Z,942.00
2018-11-27T02:29:14.253Z,941.97
2018-11-27T02:30:14.256Z,942.01
2018-11-27T02:31:14.236Z,941.98
2018-11-27T02:32:14.224Z,941.98
2018-11-27T02:33:14.221Z,941.99
2018-11-27T02:34:14.193Z,941.98
2018-11-27T02:35:14.194Z,942.01
2018-11-27T02:36:14.180Z,941.98
2018-11-27T02:37:14.171Z,941.98
2018-11-27T02:38:14.158Z,942.02
2018-11-27T02:39:14.155Z,941.99
2018-11-27T02:40:14.142Z,942.01
2018-11-27T02:41:14.128Z,942.00
2018-11-27T02:42:14.138Z,941.98
2018-11-27T02:43:14.117Z,941.99
2018-11-27T02:44:14.086Z,941.99
2018-11-27T02:45:14.083Z,942.01
2018-11-27T02:46:14.073Z,942.08
2018-11-27T02:47:14.067Z,942.00
2018-11-27T02:48:14.051Z,942.07
2018-11-27T02:49:14.042Z,942.02
2018-11-27T02:50:14.037Z,942.04
2018-11-27T02:51:14.019Z,942.01
2018-11-27T02:52:14.012Z,942.08
2018-11-27T02:53:13.997Z,942.06
2018-11-27T02:54:13.988Z,942.12
2018-11-27T02:55:13.976Z,942.12
2018-11-27T02:56:13.967Z,942.07
2018-11-27T02:57:13.957Z,942.10
2018-11-27T02:58:13.947Z,942.17
2018-11-27T02:59:13.934Z,942.19
2018-11-27T03:00:13.918Z,942.22
2018-11-27T03:01:13.923Z,942.22
2018-11-27T03:02:13.907Z,942.23
2018-11-27T03:03:13.897Z,942.23
2018-11-27T03:04:13.883Z,942.23
2018-11-27T03:05:13.868Z,942.24
2018-11-27T03:06:13.861Z,942.26
2018-11-27T03:07:13.850Z,942.20
2018-11-27T03:08:13.840Z,942.24
2018-11-27T03:09:13.829Z,942.23
2018-11-27T03:10:13.817Z,942.28
2018-11-27T03:11:13.820Z,942.21
2018-11-27T03:12:13.798Z,942.24
2018-11-27T03:13:13.789Z,942.26
2018-11-27T03:14:13.774Z,942.22
2018-11-27T03:15:13.786Z,942.25
2018-11-27T03:16:13.756Z,942.27
2018-11-27T03:17:13.746Z,942.28
2018-11-27T03:18:13.735Z,942.26
2018-11-27T03:19:13.716Z,942.29
2018-11-27T03:20:13.713Z,942.25
2018-11-27T03:21:13.709Z,942.27
2018-11-27T03:22:13.698Z,942.28
2018-11-27T03:23:13.679Z,942.29
2018-11-27T03:24:13.675Z,942.26
2018-11-27T03:25:13.660Z,942.31
2018-11-27T03:26:13.651Z,942.32
2018-11-27T03:27:13.638Z,942.39
2018-11-27T03:28:14.516Z,942.33
2018-11-27T03:29:13.620Z,942.40
2018-11-27T03:30:13.618Z,942.35
2018-11-27T03:31:13.601Z,942.40
2018-11-27T03:32:13.590Z,942.39
2018-11-27T03:33:13.582Z,942.38
2018-11-27T03:34:13.567Z,942.37
2018-11-27T03:35:13.547Z,942.41
2018-11-27T03:36:13.536Z,942.43
2018-11-27T03:37:13.535Z,942.39
2018-11-27T03:38:13.549Z,942.42
2018-11-27T03:39:13.520Z,942.41
2018-11-27T03:40:13.501Z,942.44
2018-11-27T03:41:13.498Z,942.45
2018-11-27T03:42:13.486Z,942.46
2018-11-27T03:43:13.468Z,942.47
2018-11-27T03:44:13.465Z,942.49
2018-11-27T03:45:13.456Z,942.47
2018-11-27T03:46:13.440Z,942.52
2018-11-27T03:47:13.431Z,942.53
2018-11-27T03:48:13.412Z,942.51
2018-11-27T03:49:13.412Z,942.52
2018-11-27T03:50:13.405Z,942.55
2018-11-27T03:51:13.388Z,942.58
2018-11-27T03:52:13.380Z,942.54
2018-11-27T03:53:13.372Z,942.54
2018-11-27T03:54:13.362Z,942.55
2018-11-27T03:55:13.352Z,942.58
2018-11-27T03:56:13.353Z,942.58
2018-11-27T03:57:13.330Z,942.59
2018-11-27T03:58:13.318Z,942.59
2018-11-27T03:59:13.308Z,942.63
2018-11-27T04:00:13.296Z,942.64
2018-11-27T04:01:13.294Z,942.62
2018-11-27T04:02:13.278Z,942.64
2018-11-27T04:03:13.271Z,942.64
2018-11-27T04:04:13.257Z,942.67
2018-11-27T04:05:13.242Z,942.63
2018-11-27T04:06:13.235Z,942.64
2018-11-27T04:07:13.225Z,942.64
2018-11-27T04:08:13.212Z,942.66
2018-11-27T04:09:13.203Z,942.66
2018-11-27T04:10:13.192Z,942.66
2018-11-27T04:11:13.185Z,942.69
2018-11-27T04:12:13.172Z,942.71
2018-11-27T04:13:13.160Z,942.68
2018-11-27T04:14:13.154Z,942.70
2018-11-27T04:15:13.142Z,942.74
2018-11-27T04:16:13.128Z,942.78
2018-11-27T04:17:13.115Z,942.75
2018-11-27T04:18:13.109Z,942.82
2018-11-27T04:19:13.114Z,942.80
2018-11-27T04:20:13.089Z,942.80
2018-11-27T04:21:13.078Z,942.83
2018-11-27T04:22:13.067Z,942.82
2018-11-27T04:23:13.057Z,942.82
2018-11-27T04:24:13.046Z,942.82
2018-11-27T04:25:13.044Z,942.80
2018-11-27T04:26:13.026Z,942.85
2018-11-27T04:27:13.013Z,942.80
2018-11-27T04:28:12.999Z,942.84
2018-11-27T04:29:12.994Z,942.81
2018-11-27T04:30:12.983Z,942.87
2018-11-27T04:31:12.972Z,942.81
2018-11-27T04:32:12.965Z,942.84
2018-11-27T04:33:12.954Z,942.83
2018-11-27T04:34:12.949Z,942.82
2018-11-27T04:35:12.932Z,942.87
2018-11-27T04:36:12.920Z,942.86
2018-11-27T04:37:12.911Z,942.85
2018-11-27T04:38:12.900Z,942.84
2018-11-27T04:39:12.932Z,942.80
2018-11-27T04:40:12.894Z,942.82
2018-11-27T04:41:12.871Z,942.84
2018-11-27T04:42:12.899Z,942.86
2018-11-27T04:43:12.862Z,942.90
2018-11-27T04:44:12.855Z,942.90
2018-11-27T04:45:12.827Z,942.90
2018-11-27T04:46:12.814Z,942.92
2018-11-27T04:47:12.807Z,942.91
2018-11-27T04:48:12.797Z,942.92
2018-11-27T04:49:12.806Z,942.93
2018-11-27T04:50:12.777Z,942.93
2018-11-27T04:51:12.767Z,942.92
2018-11-27T04:52:12.745Z,942.94
2018-11-27T04:53:12.739Z,942.95
2018-11-27T04:54:12.735Z,942.95
2018-11-27T04:55:12.722Z,943.01
2018-11-27T04:56:12.715Z,943.00
2018-11-27T04:57:12.705Z,943.02
2018-11-27T04:58:12.697Z,943.02
2018-11-27T04:59:12.686Z,943.03
2018-11-27T05:00:12.675Z,943.02
2018-11-27T05:01:12.662Z,943.04
2018-11-27T05:02:12.653Z,943.08
2018-11-27T05:03:12.643Z,943.06
2018-11-27T05:04:12.631Z,943.09
2018-11-27T05:05:12.621Z,943.09
2018-11-27T05:06:12.612Z,943.10
2018-11-27T05:07:12.601Z,943.14
2018-11-27T05:08:12.589Z,943.09
2018-11-27T05:09:12.580Z,943.15
2018-11-27T05:10:12.568Z,943.15
2018-11-27T05:11:12.556Z,943.16
2018-11-27T05:12:12.546Z,943.15
2018-11-27T05:13:12.538Z,943.20
2018-11-27T05:14:12.529Z,943.22
2018-11-27T05:15:12.522Z,943.23
2018-11-27T05:16:12.514Z,943.25
2018-11-27T05:17:12.526Z,943.22
2018-11-27T05:18:12.483Z,943.29
2018-11-27T05:19:12.473Z,943.24
2018-11-27T05:20:12.479Z,943.29
2018-11-27T05:21:12.457Z,943.28
2018-11-27T05:22:12.443Z,943.31
2018-11-27T05:23:12.431Z,943.36
2018-11-27T05:24:12.423Z,943.36
2018-11-27T05:25:12.411Z,943.39
2018-11-27T05:26:12.422Z,943.39
2018-11-27T05:27:12.391Z,943.41
2018-11-27T05:28:12.377Z,943.38
2018-11-27T05:29:12.372Z,943.38
2018-11-27T05:30:12.362Z,943.36
2018-11-27T05:31:12.350Z,943.32
2018-11-27T05:32:12.342Z,943.37
2018-11-27T05:33:12.331Z,943.40
2018-11-27T05:34:12.315Z,943.40
2018-11-27T05:35:12.307Z,943.41
2018-11-27T05:36:12.297Z,943.46
2018-11-27T05:37:12.286Z,943.43
2018-11-27T05:38:12.280Z,943.46
2018-11-27T05:39:12.271Z,943.43
2018-11-27T05:40:12.256Z,943.50
2018-11-27T05:41:12.263Z,943.47
2018-11-27T05:42:12.236Z,943.50
2018-11-27T05:43:12.226Z,943.49
2018-11-27T05:44:12.216Z,943.51
2018-11-27T05:45:12.206Z,943.51
2018-11-27T05:46:12.201Z,943.48
2018-11-27T05:47:12.175Z,943.49
2018-11-27T05:48:12.177Z,943.51
2018-11-27T05:49:12.169Z,943.48
2018-11-27T05:50:12.154Z,943.49
2018-11-27T05:51:12.142Z,943.51
2018-11-27T05:52:12.134Z,943.46
2018-11-27T05:53:12.125Z,943.45
2018-11-27T05:54:12.118Z,943.49
2018-11-27T05:55:12.104Z,943.50
2018-11-27T05:56:12.096Z,943.54
2018-11-27T05:57:12.085Z,943.57
2018-11-27T05:58:12.125Z,943.56
2018-11-27T05:59:12.066Z,943.57
2018-11-27T06:00:12.052Z,943.59
2018-11-27T06:01:12.042Z,943.62
2018-11-27T06:02:12.036Z,943.59
2018-11-27T06:03:12.028Z,943.62
2018-11-27T06:04:12.014Z,943.58
2018-11-27T06:05:12.004Z,943.61
2018-11-27T06:06:11.994Z,943.63
2018-11-27T06:07:11.983Z,943.62
2018-11-27T06:08:11.972Z,943.68
2018-11-27T06:09:11.962Z,943.69
2018-11-27T06:10:11.954Z,943.68
2018-11-27T06:11:11.942Z,943.68
2018-11-27T06:12:11.936Z,943.65
2018-11-27T06:13:11.923Z,943.68
2018-11-27T06:14:11.913Z,943.71
2018-11-27T06:15:11.902Z,943.73
2018-11-27T06:16:11.893Z,943.73
2018-11-27T06:17:11.890Z,943.70
2018-11-27T06:18:11.872Z,943.78
2018-11-27T06:19:11.862Z,943.75
2018-11-27T06:20:11.864Z,943.79
2018-11-27T06:21:11.844Z,943.79
2018-11-27T06:22:11.834Z,943.77
2018-11-27T06:23:11.823Z,943.75
2018-11-27T06:24:11.810Z,943.80
2018-11-27T06:25:11.802Z,943.79
2018-11-27T06:26:11.796Z,943.82
2018-11-27T06:27:11.782Z,943.85
2018-11-27T06:28:11.771Z,943.83
2018-11-27T06:29:11.760Z,943.85
2018-11-27T06:30:11.746Z,943.94
2018-11-27T06:31:11.747Z,943.91
2018-11-27T06:32:11.736Z,943.95
2018-11-27T06:33:11.725Z,944.00
2018-11-27T06:34:11.711Z,943.99
2018-11-27T06:35:11.700Z,944.01
2018-11-27T06:36:11.690Z,944.03
2018-11-27T06:37:11.685Z,944.06
2018-11-27T06:38:11.676Z,944.06
2018-11-27T06:39:11.665Z,944.13
2018-11-27T06:40:11.651Z,944.17
2018-11-27T06:41:11.640Z,944.16
2018-11-27T06:42:11.630Z,944.20
2018-11-27T06:43:11.626Z,944.23
2018-11-27T06:44:11.612Z,944.22
2018-11-27T06:45:11.599Z,944.24
2018-11-27T06:46:11.589Z,944.22
2018-11-27T06:47:11.601Z,944.21
2018-11-27T06:48:11.572Z,944.24
2018-11-27T06:49:11.558Z,944.21
2018-11-27T06:50:11.548Z,944.27
2018-11-27T06:51:11.536Z,944.26
2018-11-27T06:52:11.528Z,944.30
2018-11-27T06:53:11.519Z,944.33
2018-11-27T06:54:11.508Z,944.33
2018-11-27T06:55:11.495Z,944.31
2018-11-27T06:56:11.486Z,944.31
2018-11-27T06:57:11.467Z,944.36
2018-11-27T06:58:11.465Z,944.33
2018-11-27T06:59:11.466Z,944.34
2018-11-27T07:00:11.446Z,944.35
2018-11-27T07:01:11.435Z,944.35
2018-11-27T07:02:11.425Z,944.30
2018-11-27T07:03:11.415Z,944.35
2018-11-27T07:04:11.402Z,944.34
2018-11-27T07:05:11.399Z,944.37
2018-11-27T07:06:11.388Z,944.38
2018-11-27T07:07:11.364Z,944.36
2018-11-27T07:08:11.361Z,944.37
2018-11-27T07:09:11.352Z,944.41
2018-11-27T07:10:11.355Z,944.45
2018-11-27T07:11:11.337Z,944.48
2018-11-27T07:12:11.323Z,944.50
2018-11-27T07:13:11.312Z,944.51
2018-11-27T07:14:11.302Z,944.54
2018-11-27T07:15:11.291Z,944.54
2018-11-27T07:16:11.279Z,944.56
2018-11-27T07:17:11.267Z,944.58
2018-11-27T07:18:11.262Z,944.58
2018-11-27T07:19:11.255Z,944.54
2018-11-27T07:20:11.250Z,944.56
2018-11-27T07:21:11.233Z,944.57
2018-11-27T07:22:11.220Z,944.60
2018-11-27T07:23:11.209Z,944.61
2018-11-27T07:24:11.198Z,944.59
2018-11-27T07:25:11.193Z,944.63
2018-11-27T07:26:11.180Z,944.64
2018-11-27T07:27:11.170Z,944.66
2018-11-27T07:28:11.161Z,944.67
2018-11-27T07:29:11.147Z,944.70
2018-11-27T07:30:11.142Z,944.72
2018-11-27T07:31:11.131Z,944.68
2018-11-27T07:32:11.121Z,944.75
2018-11-27T07:33:11.114Z,944.73
2018-11-27T07:34:11.108Z,944.77
2018-11-27T07:35:11.084Z,944.77
2018-11-27T07:36:11.081Z,944.77
2018-11-27T07:37:11.075Z,944.83
2018-11-27T07:38:11.061Z,944.78
2018-11-27T07:39:11.044Z,944.78
2018-11-27T07:40:11.039Z,944.84
2018-11-27T07:41:11.032Z,944.80
2018-11-27T07:42:11.024Z,944.83
2018-11-27T07:43:11.012Z,944.79
2018-11-27T07:44:11.002Z,944.82
2018-11-27T07:45:10.991Z,944.88
2018-11-27T07:46:10.984Z,944.84
2018-11-27T07:47:10.971Z,944.90
2018-11-27T07:48:10.964Z,944.92
2018-11-27T07:49:10.955Z,944.90
2018-11-27T07:50:10.947Z,944.93
2018-11-27T07:51:10.924Z,944.96
2018-11-27T07:52:10.925Z,944.95
2018-11-27T07:53:10.927Z,944.98
2018-11-27T07:54:10.905Z,945.05
2018-11-27T07:55:10.895Z,945.00
2018-11-27T07:56:10.883Z,945.01
2018-11-27T07:57:10.877Z,944.98
2018-11-27T07:58:10.869Z,945.02
2018-11-27T07:59:10.862Z,945.05
2018-11-27T08:00:10.856Z,945.05
2018-11-27T08:01:10.837Z,945.07
2018-11-27T08:02:10.830Z,945.03
2018-11-27T08:03:10.821Z,945.05
2018-11-27T08:04:10.809Z,945.11
2018-11-27T08:05:10.798Z,945.12
2018-11-27T08:06:10.790Z,945.16
2018-11-27T08:07:10.782Z,945.16
2018-11-27T08:08:10.772Z,945.20
2018-11-27T08:09:10.763Z,945.19
2018-11-27T08:10:10.752Z,945.23
2018-11-27T08:11:10.740Z,945.24
2018-11-27T08:12:10.731Z,945.23
2018-11-27T08:13:10.714Z,945.27
2018-11-27T08:14:10.712Z,945.26
2018-11-27T08:15:10.699Z,945.26
2018-11-27T08:16:10.692Z,945.27
2018-11-27T08:17:10.682Z,945.25
2018-11-27T08:18:10.675Z,945.32
2018-11-27T08:19:10.661Z,945.31
2018-11-27T08:20:10.661Z,945.37
2018-11-27T08:21:10.646Z,945.39
2018-11-27T08:22:10.633Z,945.42
2018-11-27T08:23:10.620Z,945.40
2018-11-27T08:24:10.614Z,945.40
2018-11-27T08:25:10.604Z,945.44
2018-11-27T08:26:10.609Z,945.44
2018-11-27T08:27:10.582Z,945.48
2018-11-27T08:28:10.576Z,945.43
2018-11-27T08:29:10.563Z,945.45
2018-11-27T08:30:10.559Z,945.45
2018-11-27T08:31:10.545Z,945.47
2018-11-27T08:32:10.540Z,945.49
2018-11-27T08:33:10.528Z,945.49
2018-11-27T08:34:10.517Z,945.51
2018-11-27T08:35:10.506Z,945.50
2018-11-27T08:36:10.505Z,945.53
2018-11-27T08:37:10.491Z,945.52
2018-11-27T08:38:10.480Z,945.56
2018-11-27T08:39:10.470Z,945.53
2018-11-27T08:40:10.465Z,945.56
2018-11-27T08:41:10.450Z,945.51
2018-11-27T08:42:10.441Z,945.55
2018-11-27T08:43:10.434Z,945.52
2018-11-27T08:44:10.421Z,945.58
2018-11-27T08:45:10.415Z,945.56
2018-11-27T08:46:10.426Z,945.59
2018-11-27T08:47:10.388Z,945.64
2018-11-27T08:48:10.384Z,945.66
2018-11-27T08:49:10.381Z,945.72
2018-11-27T08:50:10.366Z,945.71
2018-11-27T08:51:10.361Z,945.73
2018-11-27T08:52:10.346Z,945.77
2018-11-27T08:53:10.337Z,945.73
2018-11-27T08:54:10.324Z,945.77
2018-11-27T08:55:10.315Z,945.80
2018-11-27T08:56:10.299Z,945.80
2018-11-27T08:57:10.299Z,945.78
2018-11-27T08:58:10.321Z,945.83
2018-11-27T08:59:10.280Z,945.85
2018-11-27T09:00:10.272Z,945.84
2018-11-27T09:01:10.265Z,945.82
2018-11-27T09:02:10.303Z,945.84
2018-11-27T09:03:10.247Z,945.85
2018-11-27T09:04:10.236Z,945.87
2018-11-27T09:05:10.217Z,945.84
2018-11-27T09:06:10.218Z,945.92
2018-11-27T09:07:10.204Z,945.87
2018-11-27T09:08:10.196Z,945.90
2018-11-27T09:09:10.194Z,945.91
2018-11-27T09:10:10.183Z,945.89
2018-11-27T09:11:10.165Z,945.93
2018-11-27T09:12:10.186Z,945.90
2018-11-27T09:13:10.182Z,945.93
2018-11-27T09:14:10.145Z,945.96
2018-11-27T09:15:10.135Z,945.96
2018-11-27T09:16:10.130Z,945.97
2018-11-27T09:17:10.119Z,946.00
2018-11-27T09:18:10.115Z,946.07
2018-11-27T09:19:10.099Z,946.06
2018-11-27T09:20:10.088Z,946.03
2018-11-27T09:21:10.077Z,946.04
2018-11-27T09:22:12.736Z,946.08
2018-11-27T09:23:10.065Z,946.05
2018-11-27T09:24:10.057Z,946.06
2018-11-27T09:25:10.047Z,946.10
2018-11-27T09:26:10.039Z,946.09
2018-11-27T09:27:10.031Z,946.13
2018-11-27T09:28:10.022Z,946.12
2018-11-27T09:29:10.015Z,946.14
2018-11-27T09:30:10.005Z,946.15
2018-11-27T09:31:09.990Z,946.14
2018-11-27T09:32:09.991Z,946.14
2018-11-27T09:33:09.978Z,946.15
2018-11-27T09:34:09.971Z,946.14
2018-11-27T09:35:09.966Z,946.10
2018-11-27T09:36:09.950Z,946.18
2018-11-27T09:37:09.947Z,946.15
2018-11-27T09:38:09.940Z,946.18
2018-11-27T09:39:09.929Z,946.15
2018-11-27T09:40:09.915Z,946.17
2018-11-27T09:41:10.633Z,946.17
2018-11-27T09:42:09.898Z,946.21
2018-11-27T09:43:09.897Z,946.14
2018-11-27T09:44:09.889Z,946.21
2018-11-27T09:45:09.880Z,946.21
2018-11-27T09:46:09.872Z,946.20
2018-11-27T09:47:09.861Z,946.23
2018-11-27T09:48:09.856Z,946.25
2018-11-27T09:49:09.864Z,946.26
2018-11-27T09:50:09.837Z,946.25
2018-11-27T09:51:09.831Z,946.22
2018-11-27T09:52:09.826Z,946.25
2018-11-27T09:53:09.813Z,946.24
2018-11-27T09:54:09.803Z,946.24
2018-11-27T09:55:09.797Z,946.25
2018-11-27T09:56:09.789Z,946.23
2018-11-27T09:57:09.787Z,946.24
2018-11-27T09:58:09.772Z,946.24
2018-11-27T09:59:09.769Z,946.22
2018-11-27T10:00:09.757Z,946.21
2018-11-27T10:01:09.751Z,946.21
2018-11-27T10:02:09.743Z,946.24
2018-11-27T10:03:09.735Z,946.26
2018-11-27T10:04:09.724Z,946.21
2018-11-27T10:05:09.717Z,946.27
2018-11-27T10:06:09.709Z,946.28
2018-11-27T10:07:09.703Z,946.26
2018-11-27T10:08:09.693Z,946.34
2018-11-27T10:09:09.690Z,946.33
2018-11-27T10:10:09.678Z,946.32
2018-11-27T10:11:09.670Z,946.28
2018-11-27T10:12:09.663Z,946.27
2018-11-27T10:13:09.647Z,946.31
2018-11-27T10:14:09.648Z,946.29
2018-11-27T10:15:09.639Z,946.28
2018-11-27T10:16:09.631Z,946.26
2018-11-27T10:17:09.620Z,946.28
2018-11-27T10:18:09.621Z,946.33
2018-11-27T10:19:09.630Z,946.31
2018-11-27T10:20:09.599Z,946.35
2018-11-27T10:21:09.593Z,946.32
2018-11-27T10:22:09.582Z,946.35
2018-11-27T10:23:09.573Z,946.35
2018-11-27T10:24:09.571Z,946.35
2018-11-27T10:25:09.569Z,946.32
2018-11-27T10:26:09.560Z,946.30
2018-11-27T10:27:09.548Z,946.30
2018-11-27T10:28:09.546Z,946.33
2018-11-27T10:29:09.534Z,946.31
2018-11-27T10:30:09.524Z,946.30
2018-11-27T10:31:09.516Z,946.31
2018-11-27T10:32:09.512Z,946.33
2018-11-27T10:33:09.502Z,946.34
2018-11-27T10:34:09.495Z,946.31
2018-11-27T10:35:09.487Z,946.32
2018-11-27T10:36:09.531Z,946.33
2018-11-27T10:37:09.473Z,946.34
2018-11-27T10:38:09.463Z,946.32
2018-11-27T10:39:09.455Z,946.35
2018-11-27T10:40:09.451Z,946.36
2018-11-27T10:41:09.445Z,946.38
2018-11-27T10:42:09.433Z,946.38
2018-11-27T10:43:09.424Z,946.40
2018-11-27T10:44:09.422Z,946.41
2018-11-27T10:45:09.408Z,946.38
2018-11-27T10:46:09.484Z,946.37
2018-11-27T10:47:09.395Z,946.38
2018-11-27T10:48:09.378Z,946.34
2018-11-27T10:49:09.380Z,946.35
2018-11-27T10:50:09.374Z,946.36
2018-11-27T10:51:09.375Z,946.40
2018-11-27T10:52:09.355Z,946.42
2018-11-27T10:53:09.342Z,946.41
2018-11-27T10:54:09.344Z,946.43
2018-11-27T10:55:09.334Z,946.42
2018-11-27T10:56:09.318Z,946.43
2018-11-27T10:57:09.321Z,946.48
2018-11-27T10:58:09.315Z,946.46
2018-11-27T10:59:09.307Z,946.45
2018-11-27T11:00:09.292Z,946.49
2018-11-27T11:01:09.287Z,946.50
2018-11-27T11:02:09.291Z,946.56
2018-11-27T11:03:09.280Z,946.56
2018-11-27T11:04:09.272Z,946.57
2018-11-27T11:05:09.263Z,946.54
2018-11-27T11:06:09.256Z,946.55
2018-11-27T11:07:09.244Z,946.54
2018-11-27T11:08:09.241Z,946.56
2018-11-27T11:09:09.233Z,946.56
2018-11-27T11:10:09.226Z,946.57
2018-11-27T11:11:09.218Z,946.57
2018-11-27T11:12:09.210Z,946.57
2018-11-27T11:13:09.203Z,946.55
2018-11-27T11:14:09.197Z,946.51
2018-11-27T11:15:09.185Z,946.56
2018-11-27T11:16:09.185Z,946.53
2018-11-27T11:17:09.175Z,946.53
2018-11-27T11:18:09.169Z,946.57
2018-11-27T11:19:09.149Z,946.54
2018-11-27T11:20:09.150Z,946.55
2018-11-27T11:21:09.141Z,946.52
2018-11-27T11:22:09.135Z,946.50
2018-11-27T11:23:09.127Z,946.50
2018-11-27T11:24:09.115Z,946.46
2018-11-27T11:25:09.113Z,946.44
2018-11-27T11:26:09.100Z,946.44
2018-11-27T11:27:09.095Z,946.44
2018-11-27T11:28:09.088Z,946.38
2018-11-27T11:29:09.075Z,946.41
2018-11-27T11:30:09.075Z,946.36
2018-11-27T11:31:09.064Z,946.37
2018-11-27T11:32:09.061Z,946.36
2018-11-27T11:33:09.053Z,946.32
2018-11-27T11:34:09.044Z,946.36
2018-11-27T11:35:09.038Z,946.41
2018-11-27T11:36:09.027Z,946.39
2018-11-27T11:37:09.022Z,946.45
2018-11-27T11:38:09.013Z,946.41
2018-11-27T11:39:09.014Z,946.43
2018-11-27T11:40:08.999Z,946.45
2018-11-27T11:41:08.998Z,946.52
2018-11-27T11:42:08.988Z,946.49
2018-11-27T11:43:08.980Z,946.51
2018-11-27T11:44:08.968Z,946.53
2018-11-27T11:45:08.963Z,946.55
2018-11-27T11:46:08.956Z,946.52
2018-11-27T11:47:08.945Z,946.50
2018-11-27T11:48:08.941Z,946.52
2018-11-27T11:49:08.932Z,946.52
2018-11-27T11:50:08.926Z,946.54
2018-11-27T11:51:08.914Z,946.54
2018-11-27T11:52:08.906Z,946.55
2018-11-27T11:53:08.903Z,946.57
2018-11-27T11:54:08.897Z,946.59
2018-11-27T11:55:08.888Z,946.60
2018-11-27T11:56:08.905Z,946.55
2018-11-27T11:57:08.876Z,946.55
2018-11-27T11:58:08.868Z,946.55
2018-11-27T11:59:08.855Z,946.57
2018-11-27T12:00:08.889Z,946.61
2018-11-27T12:01:08.841Z,946.66
2018-11-27T12:02:08.847Z,946.61
2018-11-27T12:03:08.833Z,946.65
2018-11-27T12:04:08.813Z,946.63
2018-11-27T12:05:08.813Z,946.67
2018-11-27T12:06:08.825Z,946.68
2018-11-27T12:07:08.799Z,946.71
2018-11-27T12:08:08.795Z,946.73
2018-11-27T12:09:08.785Z,946.72
2018-11-27T12:10:08.779Z,946.71
2018-11-27T12:11:08.769Z,946.72
2018-11-27T12:12:08.761Z,946.68
2018-11-27T12:13:08.746Z,946.70
2018-11-27T12:14:08.750Z,946.71
2018-11-27T12:15:08.739Z,946.74
2018-11-27T12:16:08.773Z,946.73
2018-11-27T12:17:08.727Z,946.73
2018-11-27T12:18:08.722Z,946.74
2018-11-27T12:19:08.713Z,946.71
2018-11-27T12:20:08.705Z,946.77
2018-11-27T12:21:08.757Z,946.73
2018-11-27T12:22:08.692Z,946.76
2018-11-27T12:23:09.697Z,946.79
2018-11-27T12:24:08.678Z,946.78
2018-11-27T12:25:08.671Z,946.79
2018-11-27T12:26:08.663Z,946.80
2018-11-27T12:27:08.657Z,946.82
2018-11-27T12:28:08.648Z,946.83